createdAt,value
2022-08-29T00:01:12.326Z,65.75
2022-08-29T00:03:40.896Z,65.97
2022-08-29T00:06:08.150Z,65.74
2022-08-29T00:08:35.065Z,66.08
2022-08-29T00:11:02.081Z,65.74
2022-08-29T00:13:29.386Z,66.02
2022-08-29T00:15:56.548Z,65.78
2022-08-29T00:18:23.471Z,65.67
2022-08-29T00:20:51.381Z,65.92
2022-08-29T00:23:18.385Z,65.80
2022-08-29T00:25:45.911Z,65.75
2022-08-29T00:28:13.096Z,65.51
2022-08-29T00:30:40.678Z,65.76
2022-08-29T00:33:08.305Z,66.01
2022-08-29T00:35:38.023Z,65.93
2022-08-29T00:38:07.240Z,65.79
2022-08-29T00:40:39.051Z,66.01
2022-08-29T00:43:06.984Z,65.96
2022-08-29T00:45:34.522Z,65.61
2022-08-29T00:48:07.872Z,65.72
2022-08-29T00:50:40.936Z,65.73
2022-08-29T00:53:14.022Z,65.88
2022-08-29T00:55:41.470Z,65.76
2022-08-29T00:58:14.470Z,65.87
2022-08-29T01:00:43.184Z,65.88
2022-08-29T01:03:10.449Z,65.88
2022-08-29T01:05:37.804Z,65.83
2022-08-29T01:08:06.567Z,65.78
2022-08-29T01:10:53.564Z,65.71
2022-08-29T01:13:25.377Z,65.73
2022-08-29T01:15:53.052Z,65.83
2022-08-29T01:18:21.190Z,65.94
2022-08-29T01:21:21.145Z,66.05
2022-08-29T01:23:59.655Z,65.87
2022-08-29T01:26:28.894Z,65.94
2022-08-29T01:28:56.672Z,66.24
2022-08-29T01:31:57.215Z,65.87
2022-08-29T01:34:27.860Z,65.94
2022-08-29T01:37:00.863Z,65.92
2022-08-29T01:39:31.889Z,65.91
2022-08-29T01:42:00.227Z,65.80
2022-08-29T01:44:27.190Z,66.05
2022-08-29T01:47:01.784Z,66.13
2022-08-29T01:49:30.049Z,65.94
2022-08-29T01:51:57.044Z,65.71
2022-08-29T01:54:23.917Z,66.25
2022-08-29T01:56:53.026Z,66.05
2022-08-29T01:59:23.891Z,66.08
2022-08-29T02:02:03.929Z,66.00
2022-08-29T02:04:31.583Z,65.97
2022-08-29T02:06:58.970Z,66.09
2022-08-29T02:09:27.173Z,66.10
2022-08-29T02:11:55.310Z,65.89
2022-08-29T02:14:23.799Z,66.05
2022-08-29T02:16:51.212Z,65.96
2022-08-29T02:19:18.475Z,65.94
2022-08-29T02:21:45.809Z,65.92
2022-08-29T02:24:25.415Z,65.95
2022-08-29T02:26:54.769Z,65.95
2022-08-29T02:29:22.571Z,65.85
2022-08-29T02:31:49.556Z,65.79
2022-08-29T02:34:17.235Z,65.83
2022-08-29T02:36:44.626Z,65.97
2022-08-29T02:39:13.015Z,65.95
2022-08-29T02:41:39.992Z,65.94
2022-08-29T02:44:11.256Z,65.84
2022-08-29T02:46:38.243Z,65.95
2022-08-29T02:49:05.555Z,66.21
2022-08-29T02:51:33.765Z,66.02
2022-08-29T02:54:02.000Z,66.05
2022-08-29T02:56:30.102Z,66.04
2022-08-29T02:58:57.926Z,65.90
2022-08-29T03:01:26.413Z,66.16
2022-08-29T03:03:53.919Z,66.30
2022-08-29T03:06:21.510Z,65.69
2022-08-29T03:08:48.418Z,66.06
2022-08-29T03:11:17.469Z,66.25
2022-08-29T03:13:45.744Z,66.11
2022-08-29T03:16:13.804Z,66.39
2022-08-29T03:18:41.074Z,66.30
2022-08-29T03:21:25.242Z,66.19
2022-08-29T03:23:53.349Z,66.09
2022-08-29T03:26:20.367Z,66.03
2022-08-29T03:28:47.703Z,66.08
2022-08-29T03:31:14.843Z,66.06
2022-08-29T03:33:42.124Z,65.83
2022-08-29T03:36:14.084Z,66.23
2022-08-29T03:38:42.802Z,66.16
2022-08-29T03:41:10.144Z,66.09
2022-08-29T03:43:37.078Z,66.20
2022-08-29T03:46:04.240Z,66.28
2022-08-29T03:48:33.516Z,66.21
2022-08-29T03:51:00.487Z,66.20
2022-08-29T03:53:27.585Z,66.46
2022-08-29T03:55:54.653Z,66.14
2022-08-29T03:58:21.869Z,65.94
2022-08-29T04:00:48.765Z,65.99
2022-08-29T04:03:15.695Z,66.04
2022-08-29T04:05:42.725Z,66.21
2022-08-29T04:08:09.775Z,66.02
2022-08-29T04:10:38.663Z,66.10
2022-08-29T04:13:08.091Z,66.31
2022-08-29T04:15:36.061Z,66.28
2022-08-29T04:18:06.816Z,66.32
2022-08-29T04:20:38.145Z,66.25
2022-08-29T04:23:06.315Z,66.09
2022-08-29T04:25:37.625Z,66.14
2022-08-29T04:28:11.761Z,66.07
2022-08-29T04:30:40.152Z,66.15
2022-08-29T04:33:07.461Z,66.01
2022-08-29T04:35:35.854Z,65.87
2022-08-29T04:38:02.864Z,66.27
2022-08-29T04:40:29.902Z,65.97
2022-08-29T04:42:58.393Z,66.03
2022-08-29T04:45:26.328Z,66.02
2022-08-29T04:47:53.243Z,66.30
2022-08-29T04:50:23.099Z,66.28
2022-08-29T04:52:52.578Z,66.46
2022-08-29T04:55:22.729Z,66.40
2022-08-29T04:57:53.542Z,66.54
2022-08-29T05:00:25.109Z,66.42
2022-08-29T05:02:52.057Z,66.51
2022-08-29T05:05:21.756Z,66.71
2022-08-29T05:07:48.620Z,66.81
2022-08-29T05:10:19.345Z,66.92
2022-08-29T05:12:46.659Z,67.18
2022-08-29T05:15:14.557Z,67.44
2022-08-29T05:17:41.574Z,67.16
2022-08-29T05:20:09.134Z,67.83
2022-08-29T05:22:36.637Z,67.62
2022-08-29T05:25:05.193Z,67.68
2022-08-29T05:27:32.413Z,67.52
2022-08-29T05:29:59.759Z,67.57
2022-08-29T05:32:26.675Z,67.42
2022-08-29T05:34:53.632Z,67.49
2022-08-29T05:37:21.164Z,67.39
2022-08-29T05:39:49.258Z,67.50
2022-08-29T05:42:19.618Z,67.38
2022-08-29T05:44:47.041Z,67.54
2022-08-29T05:47:16.089Z,67.56
2022-08-29T05:49:44.574Z,67.30
2022-08-29T05:52:13.057Z,67.16
2022-08-29T05:54:42.011Z,67.11
2022-08-29T05:57:14.194Z,67.30
2022-08-29T05:59:43.730Z,67.21
2022-08-29T06:02:12.186Z,67.49
2022-08-29T06:04:40.531Z,67.50
2022-08-29T06:07:09.149Z,67.57
2022-08-29T06:09:38.549Z,68.01
2022-08-29T06:12:07.016Z,68.16
2022-08-29T06:14:34.845Z,68.19
2022-08-29T06:17:02.464Z,68.09
2022-08-29T06:19:34.970Z,68.11
2022-08-29T06:22:09.778Z,67.61
2022-08-29T06:24:39.147Z,67.45
2022-08-29T06:27:06.563Z,67.44
2022-08-29T06:29:36.257Z,67.40
2022-08-29T06:32:09.874Z,67.42
2022-08-29T06:34:36.882Z,67.22
2022-08-29T06:37:03.962Z,67.71
2022-08-29T06:39:30.901Z,68.03
2022-08-29T06:41:57.811Z,68.51
2022-08-29T06:44:25.151Z,68.56
2022-08-29T06:46:52.095Z,68.40
2022-08-29T06:49:20.911Z,68.00
2022-08-29T06:51:57.375Z,67.49
2022-08-29T06:54:28.175Z,67.59
2022-08-29T06:56:56.056Z,67.46
2022-08-29T06:59:22.946Z,67.39
2022-08-29T07:01:50.076Z,67.10
2022-08-29T07:04:20.571Z,67.11
2022-08-29T07:06:49.155Z,67.21
2022-08-29T07:09:16.670Z,66.95
2022-08-29T07:11:44.171Z,67.15
2022-08-29T07:14:12.279Z,66.70
2022-08-29T07:16:40.913Z,66.86
2022-08-29T07:19:09.046Z,66.80
2022-08-29T07:21:36.124Z,67.22
2022-08-29T07:24:03.757Z,67.40
2022-08-29T07:26:37.127Z,67.36
2022-08-29T07:29:14.388Z,67.28
2022-08-29T07:31:41.870Z,67.21
2022-08-29T07:34:08.958Z,67.60
2022-08-29T07:36:36.924Z,67.28
2022-08-29T07:39:11.278Z,67.37
2022-08-29T07:41:39.402Z,67.43
2022-08-29T07:44:06.621Z,67.33
2022-08-29T07:46:34.098Z,67.59
2022-08-29T07:49:01.163Z,67.63
2022-08-29T07:51:28.673Z,67.63
2022-08-29T07:53:56.668Z,67.67
2022-08-29T07:56:27.400Z,67.83
2022-08-29T07:58:55.739Z,67.80
2022-08-29T08:01:23.958Z,67.50
2022-08-29T08:03:52.127Z,67.95
2022-08-29T08:06:22.593Z,67.51
2022-08-29T08:08:49.865Z,67.86
2022-08-29T08:11:17.146Z,67.68
2022-08-29T08:13:44.828Z,67.60
2022-08-29T08:16:20.652Z,67.73
2022-08-29T08:18:48.482Z,67.55
2022-08-29T08:21:15.499Z,67.88
2022-08-29T08:23:43.227Z,67.80
2022-08-29T08:26:12.567Z,67.85
2022-08-29T08:28:40.931Z,67.80
2022-08-29T08:31:10.208Z,67.71
2022-08-29T08:33:41.001Z,67.50
2022-08-29T08:36:25.393Z,67.35
2022-08-29T08:38:54.035Z,67.53
2022-08-29T08:41:29.860Z,67.47
2022-08-29T08:44:03.020Z,67.52
2022-08-29T08:46:49.586Z,67.38
2022-08-29T08:49:17.164Z,67.60
2022-08-29T08:51:51.436Z,67.21
2022-08-29T08:54:23.989Z,67.36
2022-08-29T08:57:02.535Z,67.26
2022-08-29T08:59:35.804Z,67.43
2022-08-29T09:02:07.819Z,67.06
2022-08-29T09:04:38.098Z,67.19
2022-08-29T09:07:39.544Z,67.15
2022-08-29T09:10:15.104Z,66.98
2022-08-29T09:12:45.020Z,66.87
2022-08-29T09:15:24.337Z,66.89
2022-08-29T09:18:05.544Z,67.11
2022-08-29T09:20:34.435Z,66.56
2022-08-29T09:23:42.868Z,66.85
2022-08-29T09:26:21.921Z,66.77
2022-08-29T09:28:49.911Z,66.76
2022-08-29T09:31:35.378Z,66.85
2022-08-29T09:34:12.353Z,66.87
2022-08-29T09:36:48.954Z,66.85
2022-08-29T09:39:18.157Z,66.77
2022-08-29T09:41:47.886Z,66.62
2022-08-29T09:44:34.207Z,66.26
2022-08-29T09:47:09.156Z,66.88
2022-08-29T09:49:40.229Z,67.04
2022-08-29T09:52:12.610Z,66.70
2022-08-29T09:54:39.981Z,66.86
2022-08-29T09:57:22.800Z,67.00
2022-08-29T10:00:17.733Z,67.08
2022-08-29T10:02:50.952Z,67.07
2022-08-29T10:05:35.178Z,66.99
2022-08-29T10:08:05.950Z,66.95
2022-08-29T10:10:36.771Z,66.95
2022-08-29T10:13:29.003Z,66.59
2022-08-29T10:16:01.805Z,66.79
2022-08-29T10:18:58.209Z,66.78
2022-08-29T10:21:56.112Z,66.71
2022-08-29T10:24:28.745Z,66.85
2022-08-29T10:27:17.378Z,66.96
2022-08-29T10:29:53.291Z,66.81
2022-08-29T10:33:04.970Z,66.69
2022-08-29T10:35:43.905Z,66.58
2022-08-29T10:38:29.129Z,66.81
2022-08-29T10:41:08.560Z,66.91
2022-08-29T10:43:40.312Z,66.93
2022-08-29T10:46:21.688Z,66.58
2022-08-29T10:49:06.814Z,66.59
2022-08-29T10:51:54.084Z,66.61
2022-08-29T10:54:33.240Z,66.51
2022-08-29T10:57:02.542Z,66.83
2022-08-29T10:59:29.423Z,66.48
2022-08-29T11:02:03.883Z,66.86
2022-08-29T11:04:38.413Z,66.74
2022-08-29T11:07:30.831Z,66.70
2022-08-29T11:10:17.961Z,66.48
2022-08-29T11:13:06.795Z,67.00
2022-08-29T11:15:48.520Z,66.72
2022-08-29T11:18:40.137Z,66.28
2022-08-29T11:21:32.613Z,66.43
2022-08-29T11:24:03.411Z,66.54
2022-08-29T11:26:45.079Z,66.41
2022-08-29T11:29:41.790Z,66.69
2022-08-29T11:32:21.577Z,66.60
2022-08-29T11:35:06.424Z,66.68
2022-08-29T11:37:57.924Z,66.75
2022-08-29T11:40:47.826Z,66.97
2022-08-29T11:43:20.841Z,66.61
2022-08-29T11:45:58.713Z,67.04
2022-08-29T11:48:48.398Z,66.77
2022-08-29T11:51:38.286Z,66.75
2022-08-29T11:54:25.012Z,66.91
2022-08-29T11:57:12.796Z,67.00
2022-08-29T11:59:49.167Z,66.98
2022-08-29T12:02:28.926Z,66.91
2022-08-29T12:05:28.050Z,66.70
2022-08-29T12:08:14.359Z,66.50
2022-08-29T12:10:56.247Z,66.66
2022-08-29T12:13:45.145Z,66.77
2022-08-29T12:16:15.316Z,66.51
2022-08-29T12:18:51.289Z,66.66
2022-08-29T12:21:36.762Z,66.76
2022-08-29T12:24:36.275Z,66.80
2022-08-29T12:27:04.554Z,66.30
2022-08-29T12:29:44.758Z,66.71
2022-08-29T12:32:40.156Z,66.28
2022-08-29T12:35:33.531Z,66.48
2022-08-29T12:38:28.973Z,66.73
2022-08-29T12:41:08.483Z,66.33
2022-08-29T12:43:44.311Z,66.41
2022-08-29T12:46:51.126Z,66.46
2022-08-29T12:49:41.334Z,66.71
2022-08-29T12:52:38.759Z,66.66
2022-08-29T12:55:43.822Z,66.60
2022-08-29T12:58:12.971Z,65.95
2022-08-29T13:00:40.932Z,66.36
2022-08-29T13:03:14.874Z,66.02
2022-08-29T13:05:43.392Z,66.12
2022-08-29T13:08:26.500Z,65.87
2022-08-29T13:10:59.336Z,65.77
2022-08-29T13:13:27.728Z,65.71
2022-08-29T13:16:01.864Z,65.99
2022-08-29T13:18:31.430Z,65.73
2022-08-29T13:21:22.740Z,66.08
2022-08-29T13:24:11.969Z,66.38
2022-08-29T13:27:03.210Z,66.54
2022-08-29T13:29:42.959Z,66.44
2022-08-29T13:32:12.101Z,66.51
2022-08-29T13:34:58.770Z,66.65
2022-08-29T13:37:35.835Z,66.46
2022-08-29T13:40:29.907Z,66.16
2022-08-29T13:42:57.353Z,66.04
2022-08-29T13:45:25.535Z,66.05
2022-08-29T13:48:03.349Z,66.07
2022-08-29T13:50:31.556Z,65.43
2022-08-29T13:52:59.345Z,65.33
2022-08-29T13:55:26.803Z,65.39
2022-08-29T13:57:55.754Z,65.43
2022-08-29T14:00:34.932Z,65.69
2022-08-29T14:03:03.655Z,65.83
2022-08-29T14:05:31.283Z,65.83
2022-08-29T14:07:58.202Z,65.90
2022-08-29T14:10:25.118Z,65.87
2022-08-29T14:12:52.281Z,65.55
2022-08-29T14:15:19.322Z,65.72
2022-08-29T14:17:47.754Z,65.72
2022-08-29T14:20:16.401Z,65.62
2022-08-29T14:22:43.837Z,65.88
2022-08-29T14:25:12.689Z,65.71
2022-08-29T14:27:40.717Z,65.58
2022-08-29T14:30:10.899Z,65.75
2022-08-29T14:32:38.655Z,65.00
2022-08-29T14:35:06.570Z,65.18
2022-08-29T14:37:34.437Z,65.01
2022-08-29T14:40:01.706Z,65.04
2022-08-29T14:42:30.964Z,65.80
2022-08-29T14:44:57.910Z,65.25
2022-08-29T14:47:24.897Z,65.01
2022-08-29T14:49:51.890Z,65.20
2022-08-29T14:52:18.953Z,65.03
2022-08-29T14:54:46.075Z,64.84
2022-08-29T14:57:13.211Z,65.47
2022-08-29T14:59:41.163Z,65.85
2022-08-29T15:02:10.278Z,65.85
2022-08-29T15:04:38.017Z,65.97
2022-08-29T15:07:06.744Z,65.94
2022-08-29T15:09:34.248Z,66.03
2022-08-29T15:12:01.592Z,65.85
2022-08-29T15:14:28.513Z,66.02
2022-08-29T15:16:55.488Z,66.08
2022-08-29T15:20:31.625Z,66.04
2022-08-29T15:22:10.547Z,66.40
2022-08-29T15:24:38.475Z,66.08
2022-08-29T15:27:06.072Z,65.91
2022-08-29T15:29:34.621Z,65.85
2022-08-29T15:32:01.556Z,65.75
2022-08-29T15:34:29.722Z,65.66
2022-08-29T15:36:57.753Z,65.73
2022-08-29T15:39:27.462Z,65.64
2022-08-29T15:42:00.332Z,65.96
2022-08-29T15:44:30.267Z,66.03
2022-08-29T15:46:58.508Z,65.71
2022-08-29T15:49:27.258Z,65.05
2022-08-29T15:51:54.792Z,65.02
2022-08-29T15:54:23.486Z,65.09
2022-08-29T15:56:50.841Z,65.28
2022-08-29T15:59:18.634Z,65.26
2022-08-29T16:01:48.804Z,65.35
2022-08-29T16:04:18.923Z,64.87
2022-08-29T16:06:46.280Z,65.31
2022-08-29T16:09:15.400Z,65.42
2022-08-29T16:11:44.886Z,65.46
2022-08-29T16:16:59.998Z,65.62
2022-08-29T16:19:27.245Z,65.61
2022-08-29T16:21:54.441Z,65.72
2022-08-29T16:24:23.288Z,65.96
2022-08-29T16:26:50.304Z,66.16
2022-08-29T16:29:26.277Z,66.21
2022-08-29T16:31:57.881Z,66.47
2022-08-29T16:34:27.027Z,66.74
2022-08-29T16:36:58.811Z,66.45
2022-08-29T16:39:26.947Z,66.36
2022-08-29T16:41:54.746Z,66.38
2022-08-29T16:44:22.442Z,66.31
2022-08-29T16:46:49.554Z,66.52
2022-08-29T16:49:17.036Z,66.18
2022-08-29T16:51:44.030Z,66.30
2022-08-29T16:54:12.959Z,66.38
2022-08-29T16:56:40.150Z,66.41
2022-08-29T16:59:07.708Z,66.47
2022-08-29T17:01:45.334Z,66.46
2022-08-29T17:04:16.061Z,66.46
2022-08-29T17:06:43.580Z,66.27
2022-08-29T17:09:10.679Z,65.66
2022-08-29T17:11:38.479Z,65.51
2022-08-29T17:14:06.547Z,65.43
2022-08-29T17:16:34.753Z,65.64
2022-08-29T17:19:01.856Z,66.29
2022-08-29T17:21:29.001Z,66.24
2022-08-29T17:23:56.173Z,66.30
2022-08-29T17:26:24.105Z,66.43
2022-08-29T17:28:51.438Z,66.36
2022-08-29T17:31:19.367Z,66.08
2022-08-29T17:33:47.030Z,66.41
2022-08-29T17:36:14.756Z,66.19
2022-08-29T17:38:45.368Z,66.50
2022-08-29T17:41:17.258Z,66.36
2022-08-29T17:43:47.732Z,66.35
2022-08-29T17:46:17.134Z,66.25
2022-08-29T17:48:45.125Z,66.46
2022-08-29T17:51:12.583Z,66.34
2022-08-29T17:53:43.560Z,66.65
2022-08-29T17:56:21.735Z,66.24
2022-08-29T17:58:49.024Z,66.34
2022-08-29T18:01:17.178Z,66.02
2022-08-29T18:03:46.988Z,66.02
2022-08-29T18:06:17.116Z,66.53
2022-08-29T18:08:48.359Z,66.52
2022-08-29T18:11:17.848Z,66.68
2022-08-29T18:13:45.802Z,66.92
2022-08-29T18:16:13.624Z,66.97
2022-08-29T18:18:45.919Z,66.29
2022-08-29T18:21:18.182Z,66.44
2022-08-29T18:23:46.523Z,66.21
2022-08-29T18:26:16.353Z,66.19
2022-08-29T18:28:44.232Z,66.43
2022-08-29T18:31:11.832Z,66.74
2022-08-29T18:34:00.234Z,66.67
2022-08-29T18:36:29.227Z,66.82
2022-08-29T18:38:56.677Z,66.85
2022-08-29T18:41:26.388Z,67.07
2022-08-29T18:43:54.278Z,66.75
2022-08-29T18:46:22.154Z,66.60
2022-08-29T18:48:49.451Z,66.49
2022-08-29T18:51:17.098Z,66.65
2022-08-29T18:53:44.749Z,66.51
2022-08-29T18:56:12.327Z,66.67
2022-08-29T18:58:41.788Z,66.92
2022-08-29T19:01:14.164Z,66.95
2022-08-29T19:03:42.283Z,67.05
2022-08-29T19:06:11.017Z,67.03
2022-08-29T19:08:39.614Z,67.29
2022-08-29T19:11:08.525Z,67.39
2022-08-29T19:13:36.584Z,67.05
2022-08-29T19:16:07.161Z,67.68
2022-08-29T19:18:35.723Z,67.16
2022-08-29T19:21:04.366Z,67.91
2022-08-29T19:23:35.862Z,67.11
2022-08-29T19:26:07.928Z,67.25
2022-08-29T19:28:35.702Z,67.38
2022-08-29T19:31:04.299Z,67.34
2022-08-29T19:33:32.624Z,67.81
2022-08-29T19:36:01.296Z,67.49
2022-08-29T19:38:30.665Z,67.72
2022-08-29T19:40:59.869Z,67.61
2022-08-29T19:43:31.350Z,67.68
2022-08-29T19:46:04.058Z,68.12
2022-08-29T19:48:31.838Z,68.47
2022-08-29T19:50:59.086Z,67.99
2022-08-29T19:53:27.119Z,67.38
2022-08-29T19:55:57.352Z,67.56
2022-08-29T19:58:31.589Z,67.09
2022-08-29T20:01:07.003Z,66.86
2022-08-29T20:03:37.622Z,66.93
2022-08-29T20:06:07.749Z,66.58
2022-08-29T20:08:44.282Z,66.92
2022-08-29T20:11:20.518Z,66.47
2022-08-29T20:13:51.178Z,66.86
2022-08-29T20:16:24.735Z,66.74
2022-08-29T20:18:54.026Z,66.98
2022-08-29T20:21:26.208Z,66.14
2022-08-29T20:23:58.409Z,66.28
2022-08-29T20:26:28.890Z,66.42
2022-08-29T20:28:59.163Z,66.12
2022-08-29T20:31:27.894Z,66.62
2022-08-29T20:33:57.025Z,66.38
2022-08-29T20:36:44.381Z,66.30
2022-08-29T20:39:15.205Z,66.31
2022-08-29T20:41:49.657Z,66.50
2022-08-29T20:44:23.434Z,66.30
2022-08-29T20:46:52.925Z,66.58
2022-08-29T20:49:24.945Z,66.43
2022-08-29T20:51:53.555Z,66.35
2022-08-29T20:54:25.187Z,66.50
2022-08-29T20:56:57.568Z,66.44
2022-08-29T20:59:27.280Z,66.08
2022-08-29T21:01:56.092Z,66.23
2022-08-29T21:04:43.895Z,66.42
2022-08-29T21:07:14.714Z,66.27
2022-08-29T21:09:46.375Z,66.37
2022-08-29T21:12:15.552Z,66.34
2022-08-29T21:14:46.834Z,66.41
2022-08-29T21:17:18.060Z,66.70
2022-08-29T21:19:46.407Z,66.40
2022-08-29T21:22:15.728Z,66.30
2022-08-29T21:24:45.096Z,66.30
2022-08-29T21:27:12.736Z,66.36
2022-08-29T21:29:41.849Z,66.62
2022-08-29T21:32:09.683Z,66.57
2022-08-29T21:34:38.321Z,66.43
2022-08-29T21:37:06.096Z,66.52
2022-08-29T21:39:34.816Z,66.63
2022-08-29T21:42:03.162Z,66.59
2022-08-29T21:44:32.806Z,66.58
2022-08-29T21:47:01.343Z,66.63
2022-08-29T21:49:33.468Z,66.77
2022-08-29T21:52:03.521Z,66.68
2022-08-29T21:54:31.250Z,66.82
2022-08-29T21:56:58.833Z,66.71
2022-08-29T21:59:28.750Z,66.84
2022-08-29T22:01:56.653Z,66.91
2022-08-29T22:04:28.727Z,66.56
2022-08-29T22:06:59.534Z,66.35
2022-08-29T22:09:30.279Z,66.17
2022-08-29T22:11:59.234Z,66.28
2022-08-29T22:14:48.320Z,66.67
2022-08-29T22:17:17.018Z,66.58
2022-08-29T22:19:44.400Z,66.42
2022-08-29T22:22:12.602Z,66.56
2022-08-29T22:24:40.179Z,66.41
2022-08-29T22:27:08.148Z,66.60
2022-08-29T22:29:36.851Z,66.68
2022-08-29T22:32:05.132Z,66.59
2022-08-29T22:34:33.167Z,66.65
2022-08-29T22:37:00.792Z,66.82
2022-08-29T22:39:31.065Z,66.64
2022-08-29T22:41:58.674Z,66.79
2022-08-29T22:47:13.892Z,66.51
2022-08-29T22:49:41.195Z,66.46
2022-08-29T22:52:11.492Z,66.51
2022-08-29T22:54:39.338Z,66.68
2022-08-29T22:57:12.569Z,66.57
2022-08-29T22:59:40.777Z,66.56
2022-08-29T23:02:09.002Z,66.51
2022-08-29T23:04:36.217Z,66.47
2022-08-29T23:07:04.607Z,66.60
2022-08-29T23:09:35.650Z,66.79
2022-08-29T23:12:04.213Z,66.63
2022-08-29T23:14:32.749Z,66.63
2022-08-29T23:16:59.961Z,66.47
2022-08-29T23:19:27.112Z,66.63
2022-08-29T23:21:55.878Z,66.45
2022-08-29T23:24:24.579Z,66.67
2022-08-29T23:26:51.677Z,66.45
2022-08-29T23:29:19.804Z,66.62
2022-08-29T23:31:46.830Z,66.81
2022-08-29T23:34:14.279Z,66.67
2022-08-29T23:36:41.295Z,66.59
2022-08-29T23:39:08.587Z,66.59
2022-08-29T23:41:36.382Z,66.68
2022-08-29T23:44:04.427Z,66.53
2022-08-29T23:46:31.607Z,66.65
2022-08-29T23:48:58.734Z,66.62
2022-08-29T23:51:26.171Z,66.68
2022-08-29T23:53:53.344Z,66.79
2022-08-29T23:56:22.117Z,66.79
2022-08-29T23:58:49.280Z,66.51
